sensor_id;sensor_type;location;lat;lon;timestamp;pressure;altitude;pressure_sealevel;temperature;humidity
78509;BME280;67802;50.846;7.958;2024-03-23T00:51:12;96974.56;;;20.23;37.40
78509;BME280;67802;50.846;7.958;2024-03-23T00:53:38;96965.69;;;20.24;37.48
78509;BME280;67802;50.846;7.958;2024-03-23T00:56:03;96959.59;;;20.24;37.32
78509;BME280;67802;50.846;7.958;2024-03-23T00:58:29;96971.81;;;20.25;37.52
78509;BME280;67802;50.846;7.958;2024-03-23T01:00:55;96962.06;;;20.25;37.35
78509;BME280;67802;50.846;7.958;2024-03-23T01:03:20;96962.06;;;20.25;37.43
78509;BME280;67802;50.846;7.958;2024-03-23T01:05:45;96959.44;;;20.25;37.27
78509;BME280;67802;50.846;7.958;2024-03-23T01:08:11;96956.78;;;20.25;37.13
78509;BME280;67802;50.846;7.958;2024-03-23T01:10:36;96958.44;;;20.26;37.23
78509;BME280;67802;50.846;7.958;2024-03-23T01:13:01;96954.16;;;20.25;37.25
78509;BME280;67802;50.846;7.958;2024-03-23T01:15:27;96942.63;;;20.26;37.34
78509;BME280;67802;50.846;7.958;2024-03-23T01:17:52;96940.97;;;20.25;37.24
78509;BME280;67802;50.846;7.958;2024-03-23T01:20:18;96949.84;;;20.24;37.35
78509;BME280;67802;50.846;7.958;2024-03-23T01:22:43;96946.25;;;20.25;37.24
78509;BME280;67802;50.846;7.958;2024-03-23T01:25:08;96941.13;;;20.24;37.26
78509;BME280;67802;50.846;7.958;2024-03-23T01:27:34;96944.59;;;20.24;37.24
78509;BME280;67802;50.846;7.958;2024-03-23T01:29:59;96947.22;;;20.24;37.34
78509;BME280;67802;50.846;7.958;2024-03-23T01:32:25;96951.81;;;20.22;37.15
78509;BME280;67802;50.846;7.958;2024-03-23T01:34:50;96957.09;;;20.22;37.21
78509;BME280;67802;50.846;7.958;2024-03-23T01:37:15;96946.72;;;20.21;37.07
78509;BME280;67802;50.846;7.958;2024-03-23T01:39:40;96946.84;;;20.19;37.20
78509;BME280;67802;50.846;7.958;2024-03-23T01:42:06;96950.44;;;20.18;37.19
78509;BME280;67802;50.846;7.958;2024-03-23T01:44:31;96956.69;;;20.17;37.01
78509;BME280;67802;50.846;7.958;2024-03-23T01:46:56;96950.75;;;20.15;36.85
78509;BME280;67802;50.846;7.958;2024-03-23T01:49:22;96953.53;;;20.13;37.00
78509;BME280;67802;50.846;7.958;2024-03-23T01:51:47;96948.44;;;20.12;36.77
78509;BME280;67802;50.846;7.958;2024-03-23T01:54:12;96949.41;;;20.11;36.74
78509;BME280;67802;50.846;7.958;2024-03-23T01:56:38;96952.19;;;20.09;36.83
78509;BME280;67802;50.846;7.958;2024-03-23T01:59:07;96954.97;;;20.08;36.58
78509;BME280;67802;50.846;7.958;2024-03-23T02:01:34;96947.19;;;20.06;36.59
78509;BME280;67802;50.846;7.958;2024-03-23T02:04:01;96951.66;;;20.06;36.73
78509;BME280;67802;50.846;7.958;2024-03-23T02:06:26;96950.00;;;20.05;36.90
78509;BME280;67802;50.846;7.958;2024-03-23T02:08:51;96943.06;;;20.04;36.63
78509;BME280;67802;50.846;7.958;2024-03-23T02:11:17;96946.69;;;20.02;36.98
78509;BME280;67802;50.846;7.958;2024-03-23T02:13:42;96946.69;;;20.02;36.90
78509;BME280;67802;50.846;7.958;2024-03-23T02:16:08;96949.31;;;20.02;36.92
78509;BME280;67802;50.846;7.958;2024-03-23T02:18:34;96938.78;;;20.02;36.69
78509;BME280;67802;50.846;7.958;2024-03-23T02:20:59;96937.25;;;20.00;36.71
78509;BME280;67802;50.846;7.958;2024-03-23T02:23:24;96936.44;;;19.99;36.89
78509;BME280;67802;50.846;7.958;2024-03-23T02:25:50;96933.63;;;20.01;36.69
78509;BME280;67802;50.846;7.958;2024-03-23T02:28:16;96932.81;;;20.00;36.76
78509;BME280;67802;50.846;7.958;2024-03-23T02:30:42;96936.28;;;20.01;36.95
78509;BME280;67802;50.846;7.958;2024-03-23T02:33:07;96938.09;;;20.00;36.55
78509;BME280;67802;50.846;7.958;2024-03-23T02:35:33;96933.63;;;20.01;36.61
78509;BME280;67802;50.846;7.958;2024-03-23T02:37:59;96934.47;;;20.01;36.69
78509;BME280;67802;50.846;7.958;2024-03-23T02:40:24;96936.13;;;20.02;36.83
78509;BME280;67802;50.846;7.958;2024-03-23T02:42:50;96922.13;;;20.02;36.77
78509;BME280;67802;50.846;7.958;2024-03-23T02:45:15;96927.25;;;20.04;36.70
78509;BME280;67802;50.846;7.958;2024-03-23T02:47:41;96931.38;;;20.06;36.64
78509;BME280;67802;50.846;7.958;2024-03-23T02:50:06;96932.22;;;20.07;36.61
78509;BME280;67802;50.846;7.958;2024-03-23T02:52:32;96929.44;;;20.08;36.62
78509;BME280;67802;50.846;7.958;2024-03-23T02:54:57;96923.34;;;20.08;36.59
78509;BME280;67802;50.846;7.958;2024-03-23T02:57:23;96919.56;;;20.10;36.73
78509;BME280;67802;50.846;7.958;2024-03-23T02:59:48;96923.88;;;20.11;36.54
78509;BME280;67802;50.846;7.958;2024-03-23T03:02:13;96919.44;;;20.12;36.50
78509;BME280;67802;50.846;7.958;2024-03-23T03:04:39;96921.91;;;20.13;36.64
78509;BME280;67802;50.846;7.958;2024-03-23T03:07:04;96919.09;;;20.15;36.62
78509;BME280;67802;50.846;7.958;2024-03-23T03:09:30;96916.47;;;20.15;36.64
78509;BME280;67802;50.846;7.958;2024-03-23T03:11:55;96927.69;;;20.17;36.64
78509;BME280;67802;50.846;7.958;2024-03-23T03:14:20;96928.25;;;20.21;36.58
78509;BME280;67802;50.846;7.958;2024-03-23T03:16:46;96913.25;;;20.21;36.44
78509;BME280;67802;50.846;7.958;2024-03-23T03:19:11;96909.63;;;20.22;36.34
78509;BME280;67802;50.846;7.958;2024-03-23T03:21:36;96912.94;;;20.24;36.35
78509;BME280;67802;50.846;7.958;2024-03-23T03:24:02;96917.25;;;20.25;36.35
78509;BME280;67802;50.846;7.958;2024-03-23T03:26:27;96927.66;;;20.27;36.42
78509;BME280;67802;50.846;7.958;2024-03-23T03:28:53;96922.22;;;20.28;36.17
78509;BME280;67802;50.846;7.958;2024-03-23T03:31:18;96927.19;;;20.31;36.17
78509;BME280;67802;50.846;7.958;2024-03-23T03:33:44;96920.13;;;20.32;36.22
78509;BME280;67802;50.846;7.958;2024-03-23T03:36:10;96921.78;;;20.33;36.07
78509;BME280;67802;50.846;7.958;2024-03-23T03:38:35;96924.25;;;20.35;36.04
78509;BME280;67802;50.846;7.958;2024-03-23T03:41:01;96915.38;;;20.36;36.05
78509;BME280;67802;50.846;7.958;2024-03-23T03:43:26;96918.69;;;20.38;35.98
78509;BME280;67802;50.846;7.958;2024-03-23T03:45:56;96918.69;;;20.38;35.98
78509;BME280;67802;50.846;7.958;2024-03-23T03:48:21;96927.28;;;20.40;36.11
78509;BME280;67802;50.846;7.958;2024-03-23T03:50:47;96934.22;;;20.41;36.02
78509;BME280;67802;50.846;7.958;2024-03-23T03:53:12;96942.81;;;20.43;36.01
78509;BME280;67802;50.846;7.958;2024-03-23T03:55:37;96936.53;;;20.44;35.92
78509;BME280;67802;50.846;7.958;2024-03-23T03:58:03;96940.84;;;20.45;36.00
78509;BME280;67802;50.846;7.958;2024-03-23T04:00:29;96942.50;;;20.46;35.61
78509;BME280;67802;50.846;7.958;2024-03-23T04:02:55;96948.59;;;20.46;35.66
78509;BME280;67802;50.846;7.958;2024-03-23T04:05:20;96955.53;;;20.48;35.65
78509;BME280;67802;50.846;7.958;2024-03-23T04:07:46;96952.88;;;20.48;35.49
78509;BME280;67802;50.846;7.958;2024-03-23T04:10:11;96944.16;;;20.47;35.45
78509;BME280;67802;50.846;7.958;2024-03-23T04:12:37;96953.72;;;20.48;35.38
78509;BME280;67802;50.846;7.958;2024-03-23T04:15:02;96946.63;;;20.49;35.35
78509;BME280;67802;50.846;7.958;2024-03-23T04:17:29;96940.53;;;20.48;35.38
78509;BME280;67802;50.846;7.958;2024-03-23T04:19:59;96946.63;;;20.49;35.36
78509;BME280;67802;50.846;7.958;2024-03-23T04:22:25;96949.13;;;20.50;35.46
78509;BME280;67802;50.846;7.958;2024-03-23T04:24:57;96964.00;;;20.51;35.45
78509;BME280;67802;50.846;7.958;2024-03-23T04:27:23;96963.00;;;20.52;35.40
78509;BME280;67802;50.846;7.958;2024-03-23T04:29:49;96959.38;;;20.53;35.35
78509;BME280;67802;50.846;7.958;2024-03-23T04:32:15;96964.66;;;20.53;35.15
78509;BME280;67802;50.846;7.958;2024-03-23T04:34:41;96955.91;;;20.53;35.10
78509;BME280;67802;50.846;7.958;2024-03-23T04:37:07;96963.00;;;20.52;35.11
78509;BME280;67802;50.846;7.958;2024-03-23T04:39:33;96973.56;;;20.52;34.95
78509;BME280;67802;50.846;7.958;2024-03-23T04:41:58;96968.28;;;20.52;34.89
78509;BME280;67802;50.846;7.958;2024-03-23T04:44:23;96980.50;;;20.53;34.97
78509;BME280;67802;50.846;7.958;2024-03-23T04:46:49;96989.38;;;20.52;34.86
78509;BME280;67802;50.846;7.958;2024-03-23T04:49:14;96999.94;;;20.52;34.76
78509;BME280;67802;50.846;7.958;2024-03-23T04:51:39;97000.91;;;20.51;34.56
78509;BME280;67802;50.846;7.958;2024-03-23T04:54:06;97001.91;;;20.50;34.68
78509;BME280;67802;50.846;7.958;2024-03-23T04:56:32;97011.78;;;20.48;34.82
78509;BME280;67802;50.846;7.958;2024-03-23T04:58:58;97020.66;;;20.47;34.58
78509;BME280;67802;50.846;7.958;2024-03-23T05:01:27;97028.56;;;20.47;34.84
78509;BME280;67802;50.846;7.958;2024-03-23T05:03:52;97032.19;;;20.46;34.56
78509;BME280;67802;50.846;7.958;2024-03-23T05:06:18;97031.34;;;20.45;34.66
78509;BME280;67802;50.846;7.958;2024-03-23T05:08:43;97019.13;;;20.44;34.78
78509;BME280;67802;50.846;7.958;2024-03-23T05:11:08;97026.38;;;20.42;34.54
78509;BME280;67802;50.846;7.958;2024-03-23T05:13:34;97019.44;;;20.41;34.73
78509;BME280;67802;50.846;7.958;2024-03-23T05:15:59;97025.69;;;20.40;34.63
78509;BME280;67802;50.846;7.958;2024-03-23T05:18:24;97023.88;;;20.41;34.41
78509;BME280;67802;50.846;7.958;2024-03-23T05:20:55;97020.56;;;20.39;34.57
78509;BME280;67802;50.846;7.958;2024-03-23T05:23:21;97015.28;;;20.39;34.69
78509;BME280;67802;50.846;7.958;2024-03-23T05:25:46;97012.66;;;20.39;34.64
78509;BME280;67802;50.846;7.958;2024-03-23T05:28:12;97019.88;;;20.37;34.34
78509;BME280;67802;50.846;7.958;2024-03-23T05:30:38;97014.63;;;20.37;34.30
78509;BME280;67802;50.846;7.958;2024-03-23T05:33:03;97019.19;;;20.35;34.43
78509;BME280;67802;50.846;7.958;2024-03-23T05:35:28;97024.47;;;20.35;34.52
78509;BME280;67802;50.846;7.958;2024-03-23T05:37:54;97019.19;;;20.35;34.50
78509;BME280;67802;50.846;7.958;2024-03-23T05:40:19;97026.13;;;20.36;34.27
78509;BME280;67802;50.846;7.958;2024-03-23T05:42:44;97022.69;;;20.35;34.41
78509;BME280;67802;50.846;7.958;2024-03-23T05:45:09;97022.53;;;20.37;34.56
78509;BME280;67802;50.846;7.958;2024-03-23T05:47:36;97025.16;;;20.37;34.43
78509;BME280;67802;50.846;7.958;2024-03-23T05:50:01;97029.63;;;20.36;34.43
78509;BME280;67802;50.846;7.958;2024-03-23T05:52:27;97036.41;;;20.39;34.56
78509;BME280;67802;50.846;7.958;2024-03-23T05:54:53;97035.41;;;20.40;34.53
78509;BME280;67802;50.846;7.958;2024-03-23T05:57:18;97038.06;;;20.40;34.47
78509;BME280;67802;50.846;7.958;2024-03-23T05:59:44;97036.09;;;20.42;34.62
78509;BME280;67802;50.846;7.958;2024-03-23T06:02:09;97040.41;;;20.43;34.46
78509;BME280;67802;50.846;7.958;2024-03-23T06:04:35;97042.88;;;20.44;34.55
78509;BME280;67802;50.846;7.958;2024-03-23T06:07:01;97038.28;;;20.46;34.47
78509;BME280;67802;50.846;7.958;2024-03-23T06:09:26;97049.69;;;20.47;34.39
78509;BME280;67802;50.846;7.958;2024-03-23T06:11:52;97043.44;;;20.48;34.41
78509;BME280;67802;50.846;7.958;2024-03-23T06:14:17;97056.31;;;20.51;34.37
78509;BME280;67802;50.846;7.958;2024-03-23T06:16:42;97058.81;;;20.53;34.09
78509;BME280;67802;50.846;7.958;2024-03-23T06:19:07;97056.16;;;20.53;34.09
78509;BME280;67802;50.846;7.958;2024-03-23T06:21:33;97063.94;;;20.54;34.23
78509;BME280;67802;50.846;7.958;2024-03-23T06:23:58;97068.25;;;20.55;34.09
78509;BME280;67802;50.846;7.958;2024-03-23T06:26:23;97065.44;;;20.57;34.26
78509;BME280;67802;50.846;7.958;2024-03-23T06:28:49;97066.28;;;20.57;34.19
78509;BME280;67802;50.846;7.958;2024-03-23T06:31:14;97064.34;;;20.59;34.29
78509;BME280;67802;50.846;7.958;2024-03-23T06:33:40;97071.94;;;20.63;34.25
78509;BME280;67802;50.846;7.958;2024-03-23T06:36:10;97067.50;;;20.63;34.34
78509;BME280;67802;50.846;7.958;2024-03-23T06:38:36;97077.91;;;20.65;34.12
78509;BME280;67802;50.846;7.958;2024-03-23T06:41:03;97075.94;;;20.67;34.29
78509;BME280;67802;50.846;7.958;2024-03-23T06:43:28;97068.69;;;20.69;34.24
78509;BME280;67802;50.846;7.958;2024-03-23T06:45:54;97070.34;;;20.70;34.13
78509;BME280;67802;50.846;7.958;2024-03-23T06:48:20;97071.88;;;20.72;34.52
78509;BME280;67802;50.846;7.958;2024-03-23T06:50:46;97075.34;;;20.73;34.33
78509;BME280;67802;50.846;7.958;2024-03-23T06:53:12;97090.06;;;20.75;34.14
78509;BME280;67802;50.846;7.958;2024-03-23T06:55:38;97086.31;;;20.78;34.50
78509;BME280;67802;50.846;7.958;2024-03-23T06:58:03;97087.97;;;20.79;34.53
78509;BME280;67802;50.846;7.958;2024-03-23T07:00:29;97086.00;;;20.81;34.41
78509;BME280;67802;50.846;7.958;2024-03-23T07:02:55;97091.16;;;20.83;34.43
78509;BME280;67802;50.846;7.958;2024-03-23T07:05:20;97097.94;;;20.85;34.34
78509;BME280;67802;50.846;7.958;2024-03-23T07:07:45;97094.31;;;20.86;34.31
78509;BME280;67802;50.846;7.958;2024-03-23T07:10:10;97105.72;;;20.87;34.03
78509;BME280;67802;50.846;7.958;2024-03-23T07:12:36;97106.41;;;20.89;34.06
78509;BME280;67802;50.846;7.958;2024-03-23T07:15:01;97097.50;;;20.90;34.08
78509;BME280;67802;50.846;7.958;2024-03-23T07:17:26;97089.41;;;20.92;34.02
78509;BME280;67802;50.846;7.958;2024-03-23T07:19:52;97094.69;;;20.92;33.94
78509;BME280;67802;50.846;7.958;2024-03-23T07:22:17;97090.09;;;20.94;33.96
78509;BME280;67802;50.846;7.958;2024-03-23T07:24:44;97098.72;;;20.96;34.04
78509;BME280;67802;50.846;7.958;2024-03-23T07:27:09;97087.28;;;20.95;33.87
78509;BME280;67802;50.846;7.958;2024-03-23T07:29:35;97100.38;;;20.97;33.76
78509;BME280;67802;50.846;7.958;2024-03-23T07:32:01;97093.13;;;20.99;33.74
78509;BME280;67802;50.846;7.958;2024-03-23T07:34:26;97089.63;;;20.98;33.72
78509;BME280;67802;50.846;7.958;2024-03-23T07:36:51;97099.09;;;21.01;33.57
78509;BME280;67802;50.846;7.958;2024-03-23T07:39:17;97108.66;;;21.02;33.56
78509;BME280;67802;50.846;7.958;2024-03-23T07:41:44;97101.56;;;21.02;33.71
78509;BME280;67802;50.846;7.958;2024-03-23T07:44:10;97112.97;;;21.03;33.66
78509;BME280;67802;50.846;7.958;2024-03-23T07:46:35;97117.28;;;21.04;33.86
78509;BME280;67802;50.846;7.958;2024-03-23T07:49:00;97112.00;;;21.04;33.52
78509;BME280;67802;50.846;7.958;2024-03-23T07:51:26;97111.00;;;21.05;33.98
78509;BME280;67802;50.846;7.958;2024-03-23T07:53:51;97117.94;;;21.06;33.79
78509;BME280;67802;50.846;7.958;2024-03-23T07:56:18;97124.91;;;21.07;33.32
78509;BME280;67802;50.846;7.958;2024-03-23T07:58:44;97124.91;;;21.07;33.46
78509;BME280;67802;50.846;7.958;2024-03-23T08:01:15;97120.44;;;21.08;33.73
78509;BME280;67802;50.846;7.958;2024-03-23T08:03:41;97116.00;;;21.08;33.54
78509;BME280;67802;50.846;7.958;2024-03-23T08:06:11;97132.66;;;21.09;33.71
78509;BME280;67802;50.846;7.958;2024-03-23T08:08:37;97129.03;;;21.10;33.65
78509;BME280;67802;50.846;7.958;2024-03-23T08:11:03;97131.69;;;21.10;33.21
78509;BME280;67802;50.846;7.958;2024-03-23T08:13:29;97138.78;;;21.09;33.47
78509;BME280;67802;50.846;7.958;2024-03-23T08:15:59;97144.06;;;21.09;33.33
78509;BME280;67802;50.846;7.958;2024-03-23T08:18:25;97144.06;;;21.09;33.56
78509;BME280;67802;50.846;7.958;2024-03-23T08:20:58;97141.41;;;21.09;33.55
78509;BME280;67802;50.846;7.958;2024-03-23T08:23:27;97139.59;;;21.10;33.38
78509;BME280;67802;50.846;7.958;2024-03-23T08:26:22;97144.88;;;21.10;33.46
78509;BME280;67802;50.846;7.958;2024-03-23T08:28:47;97154.63;;;21.09;33.25
78509;BME280;67802;50.846;7.958;2024-03-23T08:31:13;97149.63;;;21.06;33.44
78509;BME280;67802;50.846;7.958;2024-03-23T08:33:40;97154.06;;;21.05;33.24
78509;BME280;67802;50.846;7.958;2024-03-23T08:36:09;97144.50;;;21.04;33.37
78509;BME280;67802;50.846;7.958;2024-03-23T08:38:35;97146.31;;;21.04;33.48
78509;BME280;67802;50.846;7.958;2024-03-23T08:41:02;97145.47;;;21.03;33.24
78509;BME280;67802;50.846;7.958;2024-03-23T08:43:29;97139.22;;;21.04;33.38
78509;BME280;67802;50.846;7.958;2024-03-23T08:46:07;97134.91;;;21.03;33.37
78509;BME280;67802;50.846;7.958;2024-03-23T08:48:34;97142.81;;;21.03;33.15
78509;BME280;67802;50.846;7.958;2024-03-23T08:51:04;97146.31;;;21.04;33.19
78509;BME280;67802;50.846;7.958;2024-03-23T08:53:30;97150.75;;;21.03;33.07
78509;BME280;67802;50.846;7.958;2024-03-23T08:55:56;97145.63;;;21.02;33.13
78509;BME280;67802;50.846;7.958;2024-03-23T08:58:23;97151.91;;;21.01;33.25
78509;BME280;67802;50.846;7.958;2024-03-23T09:00:49;97151.91;;;21.01;33.24
78509;BME280;67802;50.846;7.958;2024-03-23T09:03:15;97160.50;;;21.03;33.21
78509;BME280;67802;50.846;7.958;2024-03-23T09:05:40;97155.91;;;21.05;33.04
78509;BME280;67802;50.846;7.958;2024-03-23T09:08:06;97161.19;;;21.05;32.97
78509;BME280;67802;50.846;7.958;2024-03-23T09:10:34;97152.28;;;21.06;33.11
78509;BME280;67802;50.846;7.958;2024-03-23T09:13:00;97147.97;;;21.05;33.10
78509;BME280;67802;50.846;7.958;2024-03-23T09:15:25;97162.16;;;21.04;33.31
78509;BME280;67802;50.846;7.958;2024-03-23T09:17:50;97155.22;;;21.03;33.09
78509;BME280;67802;50.846;7.958;2024-03-23T09:20:15;97148.56;;;20.99;33.08
78509;BME280;67802;50.846;7.958;2024-03-23T09:22:41;97149.56;;;20.98;33.05
78509;BME280;67802;50.846;7.958;2024-03-23T09:25:06;97150.53;;;20.97;33.22
78509;BME280;67802;50.846;7.958;2024-03-23T09:27:32;97142.75;;;20.95;33.16
78509;BME280;67802;50.846;7.958;2024-03-23T09:29:57;97143.59;;;20.96;33.39
78509;BME280;67802;50.846;7.958;2024-03-23T09:32:22;97145.53;;;20.94;33.22
78509;BME280;67802;50.846;7.958;2024-03-23T09:37:13;97137.63;;;20.66;33.52
78509;BME280;67802;50.846;7.958;2024-03-23T09:39:38;97131.28;;;20.58;33.63
78509;BME280;67802;50.846;7.958;2024-03-23T09:42:04;97128.25;;;20.53;33.76
78509;BME280;67802;50.846;7.958;2024-03-23T09:44:31;97129.06;;;20.54;33.98
78509;BME280;67802;50.846;7.958;2024-03-23T09:46:56;97123.09;;;20.52;33.81
78509;BME280;67802;50.846;7.958;2024-03-23T09:49:22;97123.56;;;20.47;33.68
78509;BME280;67802;50.846;7.958;2024-03-23T09:51:47;97131.06;;;20.42;33.78
78509;BME280;67802;50.846;7.958;2024-03-23T09:54:12;97128.03;;;20.37;33.83
78509;BME280;67802;50.846;7.958;2024-03-23T09:56:38;97124.19;;;20.31;34.17
78509;BME280;67802;50.846;7.958;2024-03-23T09:59:03;97120.41;;;20.34;34.26
78509;BME280;67802;50.846;7.958;2024-03-23T10:01:30;97126.78;;;20.41;34.00
78509;BME280;67802;50.846;7.958;2024-03-23T10:03:55;97119.09;;;20.48;33.98
78509;BME280;67802;50.846;7.958;2024-03-23T10:06:21;97111.44;;;20.54;33.72
78509;BME280;67802;50.846;7.958;2024-03-23T10:08:47;97114.31;;;20.61;33.82
78509;BME280;67802;50.846;7.958;2024-03-23T10:11:14;97113.72;;;20.67;33.89
78509;BME280;67802;50.846;7.958;2024-03-23T10:13:43;97100.91;;;20.72;33.62
78509;BME280;67802;50.846;7.958;2024-03-23T10:16:09;97108.41;;;20.77;33.72
78509;BME280;67802;50.846;7.958;2024-03-23T10:18:39;97113.09;;;20.83;33.45
78509;BME280;67802;50.846;7.958;2024-03-23T10:21:08;97107.50;;;20.86;33.15
78509;BME280;67802;50.846;7.958;2024-03-23T10:23:40;97093.03;;;20.90;33.13
78509;BME280;67802;50.846;7.958;2024-03-23T10:26:17;97096.38;;;20.93;32.98
78509;BME280;67802;50.846;7.958;2024-03-23T10:28:51;97092.44;;;20.97;33.01
78509;BME280;67802;50.846;7.958;2024-03-23T10:31:16;97095.78;;;20.99;33.03
78509;BME280;67802;50.846;7.958;2024-03-23T10:33:46;97099.09;;;21.01;32.89
78509;BME280;67802;50.846;7.958;2024-03-23T10:36:12;97113.78;;;21.03;32.84
78509;BME280;67802;50.846;7.958;2024-03-23T10:38:39;97138.53;;;21.02;32.82
78509;BME280;67802;50.846;7.958;2024-03-23T10:41:06;97134.09;;;21.03;32.83
78509;BME280;67802;50.846;7.958;2024-03-23T10:43:32;97141.03;;;21.04;33.04
78509;BME280;67802;50.846;7.958;2024-03-23T10:45:58;97131.28;;;21.04;33.04
78509;BME280;67802;50.846;7.958;2024-03-23T10:48:24;97133.78;;;21.06;33.38
78509;BME280;67802;50.846;7.958;2024-03-23T10:50:49;97132.81;;;21.07;33.39
78509;BME280;67802;50.846;7.958;2024-03-23T10:53:14;97129.03;;;21.10;33.33
78509;BME280;67802;50.846;7.958;2024-03-23T10:55:42;97128.72;;;21.13;33.27
78509;BME280;67802;50.846;7.958;2024-03-23T10:58:10;97122.47;;;21.14;33.30
78509;BME280;67802;50.846;7.958;2024-03-23T11:00:37;97122.03;;;21.18;33.16
78509;BME280;67802;50.846;7.958;2024-03-23T11:03:32;97118.41;;;21.19;33.18
78509;BME280;67802;50.846;7.958;2024-03-23T11:05:58;97116.44;;;21.22;33.22
78509;BME280;67802;50.846;7.958;2024-03-23T11:08:35;97111.81;;;21.24;33.38
78509;BME280;67802;50.846;7.958;2024-03-23T11:11:22;97111.69;;;21.25;33.32
78509;BME280;67802;50.846;7.958;2024-03-23T11:13:53;97106.25;;;21.27;33.60
78509;BME280;67802;50.846;7.958;2024-03-23T11:16:24;97105.25;;;21.28;33.64
78509;BME280;67802;50.846;7.958;2024-03-23T11:18:51;97099.00;;;21.29;33.73
78509;BME280;67802;50.846;7.958;2024-03-23T11:21:53;97096.34;;;21.29;33.56
78509;BME280;67802;50.846;7.958;2024-03-23T11:24:20;97093.41;;;21.32;33.40
78509;BME280;67802;50.846;7.958;2024-03-23T11:26:46;97085.19;;;21.35;33.60
78509;BME280;67802;50.846;7.958;2024-03-23T11:29:13;97086.03;;;21.35;33.57
78509;BME280;67802;50.846;7.958;2024-03-23T11:31:45;97083.53;;;21.34;33.18
78509;BME280;67802;50.846;7.958;2024-03-23T11:34:11;97089.28;;;21.29;33.58
78509;BME280;67802;50.846;7.958;2024-03-23T11:36:36;97105.56;;;21.25;33.17
78509;BME280;67802;50.846;7.958;2024-03-23T11:39:15;97149.56;;;21.16;33.01
78509;BME280;67802;50.846;7.958;2024-03-23T11:41:48;97153.09;;;21.07;33.01
78509;BME280;67802;50.846;7.958;2024-03-23T11:44:22;97173.03;;;21.01;32.98
78509;BME280;67802;50.846;7.958;2024-03-23T11:46:47;97176.09;;;20.96;33.00
78509;BME280;67802;50.846;7.958;2024-03-23T11:49:39;97156.56;;;20.89;32.88
78509;BME280;67802;50.846;7.958;2024-03-23T11:52:08;97167.53;;;20.84;33.00
78509;BME280;67802;50.846;7.958;2024-03-23T11:54:34;97167.16;;;20.79;32.96
78509;BME280;67802;50.846;7.958;2024-03-23T11:57:00;97167.31;;;20.78;33.05
78509;BME280;67802;50.846;7.958;2024-03-23T11:59:35;97157.84;;;20.75;32.76
78509;BME280;67802;50.846;7.958;2024-03-23T12:02:11;97154.50;;;20.73;32.85
78509;BME280;67802;50.846;7.958;2024-03-23T12:04:40;97154.81;;;20.70;32.84
78509;BME280;67802;50.846;7.958;2024-03-23T12:07:16;97163.16;;;20.65;33.06
78509;BME280;67802;50.846;7.958;2024-03-23T12:09:45;97153.88;;;20.61;32.99
78509;BME280;67802;50.846;7.958;2024-03-23T12:12:15;97152.38;;;20.58;33.25
78509;BME280;67802;50.846;7.958;2024-03-23T12:14:42;97146.41;;;20.56;33.28
78509;BME280;67802;50.846;7.958;2024-03-23T12:17:12;97140.75;;;20.51;33.40
78509;BME280;67802;50.846;7.958;2024-03-23T12:19:38;97147.13;;;20.49;33.43
78509;BME280;67802;50.846;7.958;2024-03-23T12:22:04;97136.06;;;20.45;33.38
78509;BME280;67802;50.846;7.958;2024-03-23T12:24:30;97143.28;;;20.43;33.57
78509;BME280;67802;50.846;7.958;2024-03-23T12:27:00;97139.97;;;20.41;33.67
78509;BME280;67802;50.846;7.958;2024-03-23T12:29:29;97143.56;;;20.40;33.64
78509;BME280;67802;50.846;7.958;2024-03-23T12:31:55;97156.06;;;20.38;33.56
78509;BME280;67802;50.846;7.958;2024-03-23T12:34:21;97164.16;;;20.36;33.10
78509;BME280;67802;50.846;7.958;2024-03-23T12:36:46;97169.84;;;20.31;33.22
78509;BME280;67802;50.846;7.958;2024-03-23T12:39:11;97180.66;;;20.28;33.29
78509;BME280;67802;50.846;7.958;2024-03-23T12:41:37;97177.34;;;20.26;33.51
78509;BME280;67802;50.846;7.958;2024-03-23T12:44:02;97192.47;;;20.24;33.27
78509;BME280;67802;50.846;7.958;2024-03-23T12:46:27;97190.13;;;20.21;33.50
78509;BME280;67802;50.846;7.958;2024-03-23T12:48:52;97177.22;;;20.18;32.98
78509;BME280;67802;50.846;7.958;2024-03-23T12:51:18;97165.84;;;20.17;32.96
78509;BME280;67802;50.846;7.958;2024-03-23T12:53:43;97177.38;;;20.16;32.90
78509;BME280;67802;50.846;7.958;2024-03-23T12:56:12;97178.19;;;20.17;33.29
78509;BME280;67802;50.846;7.958;2024-03-23T12:58:37;97166.97;;;20.15;33.37
78509;BME280;67802;50.846;7.958;2024-03-23T13:01:03;97148.50;;;20.15;33.51
78509;BME280;67802;50.846;7.958;2024-03-23T13:03:28;97159.75;;;20.17;33.51
78509;BME280;67802;50.846;7.958;2024-03-23T13:05:53;97158.75;;;20.18;33.28
78509;BME280;67802;50.846;7.958;2024-03-23T13:08:19;97176.25;;;20.19;33.27
78509;BME280;67802;50.846;7.958;2024-03-23T13:10:44;97169.19;;;20.20;33.33
78509;BME280;67802;50.846;7.958;2024-03-23T13:13:10;97173.63;;;20.19;33.21
78509;BME280;67802;50.846;7.958;2024-03-23T13:15:35;97174.47;;;20.20;33.50
78509;BME280;67802;50.846;7.958;2024-03-23T13:18:00;97180.56;;;20.20;32.91
78509;BME280;67802;50.846;7.958;2024-03-23T13:20:26;97179.84;;;20.18;33.43
78509;BME280;67802;50.846;7.958;2024-03-23T13:22:51;97167.66;;;20.17;33.16
78509;BME280;67802;50.846;7.958;2024-03-23T13:25:17;97158.06;;;20.16;33.06
78509;BME280;67802;50.846;7.958;2024-03-23T13:27:44;97151.69;;;20.19;33.22
78509;BME280;67802;50.846;7.958;2024-03-23T13:30:09;97150.72;;;20.20;33.46
78509;BME280;67802;50.846;7.958;2024-03-23T13:32:35;97159.44;;;20.20;33.56
78509;BME280;67802;50.846;7.958;2024-03-23T13:35:00;97161.13;;;20.21;33.54
78509;BME280;67802;50.846;7.958;2024-03-23T13:37:26;97166.38;;;20.21;33.58
78509;BME280;67802;50.846;7.958;2024-03-23T13:39:51;97164.44;;;20.23;33.65
78509;BME280;67802;50.846;7.958;2024-03-23T13:42:16;97160.53;;;20.27;33.57
78509;BME280;67802;50.846;7.958;2024-03-23T13:44:42;97154.00;;;20.31;33.75
78509;BME280;67802;50.846;7.958;2024-03-23T13:47:08;97165.94;;;20.36;33.49
78509;BME280;67802;50.846;7.958;2024-03-23T13:49:33;97159.94;;;20.43;33.57